| time (UTC) | temp C | wind direction | speed KPH | gust KPH | rain 1hr cm | rain 24hr cm | rain mn cm | humidity % | barometer mb |
| 20260905195458 | 17 | 252 | 16.1 | 20.9 | 0.00 | 0.00 | 0.05 | 59 | 1018.1 |
| 20260905194958 | 17 | 288 | 12.9 | 24.1 | 0.00 | 0.00 | 0.05 | 59 | 1018.1 |
| 20260905194458 | 17 | 279 | 14.5 | 24.1 | 0.00 | 0.00 | 0.05 | 59 | 1017.9 |
| 20260905193958 | 17 | 261 | 6.4 | 20.9 | 0.00 | 0.00 | 0.05 | 60 | 1017.8 |
| 20260905193458 | 17 | 269 | 11.3 | 17.7 | 0.00 | 0.00 | 0.05 | 60 | 1018.0 |
| 20260905192958 | 17 | 302 | 9.7 | 27.4 | 0.00 | 0.00 | 0.05 | 60 | 1017.9 |
| 20260905192458 | 17 | 285 | 19.3 | 24.1 | 0.00 | 0.00 | 0.05 | 60 | 1018.0 |
| 20260905191958 | 17 | 278 | 12.9 | 24.1 | 0.00 | 0.00 | 0.05 | 60 | 1017.9 |
| 20260905191458 | 17 | 292 | 8.0 | 20.9 | 0.00 | 0.00 | 0.05 | 60 | 1018.0 |
| 20260905190958 | 17 | 284 | 14.5 | 24.1 | 0.00 | 0.00 | 0.05 | 60 | 1017.7 |
| 20260905190458 | 17 | 267 | 9.7 | 20.9 | 0.00 | 0.00 | 0.05 | 61 | 1017.9 |
| 20260905185958 | 17 | 283 | 16.1 | 20.9 | 0.00 | 0.00 | 0.05 | 61 | 1017.8 |
| 20260905185458 | 17 | 242 | 14.5 | 20.9 | 0.00 | 0.00 | 0.05 | 61 | 1017.7 |
| 20260905184959 | 17 | 250 | 14.5 | 20.9 | 0.00 | 0.00 | 0.05 | 61 | 1017.8 |
| 20260905184458 | 17 | 264 | 20.9 | 24.1 | 0.00 | 0.00 | 0.05 | 61 | 1017.7 |
| 20260905183958 | 17 | 289 | 12.9 | 20.9 | 0.00 | 0.00 | 0.05 | 61 | 1017.4 |
| 20260905183458 | 17 | 258 | 9.7 | 17.7 | 0.00 | 0.00 | 0.05 | 60 | 1017.4 |
| 20260905182958 | 17 | 278 | 12.9 | 17.7 | 0.00 | 0.00 | 0.05 | 60 | 1017.3 |
| 20260905182458 | 17 | 287 | 16.1 | 24.1 | 0.00 | 0.00 | 0.05 | 60 | 1017.4 |
| 20260905181958 | 17 | 251 | 8.0 | 17.7 | 0.00 | 0.00 | 0.05 | 60 | 1017.3 |
| 20260905181458 | 17 | 265 | 9.7 | 11.3 | 0.00 | 0.00 | 0.05 | 60 | 1017.5 |
| 20260905180958 | 17 | 288 | 8.0 | 14.5 | 0.00 | 0.00 | 0.05 | 60 | 1017.4 |
| 20260905180458 | 17 | 282 | 4.8 | 11.3 | 0.00 | 0.00 | 0.05 | 60 | 1017.4 |
| 20260905175958 | 17 | 251 | 8.0 | 17.7 | 0.00 | 0.00 | 0.05 | 60 | 1017.1 |
| 20260905175458 | 17 | 255 | 6.4 | 14.5 | 0.00 | 0.00 | 0.05 | 60 | 1017.2 |
| 20260905174958 | 17 | 269 | 6.4 | 14.5 | 0.00 | 0.00 | 0.05 | 59 | 1017.2 |
| 20260905174458 | 17 | 279 | 3.2 | 11.3 | 0.00 | 0.00 | 0.05 | 59 | 1017.1 |
| 20260905173958 | 17 | 287 | 8.0 | 14.5 | 0.00 | 0.00 | 0.05 | 58 | 1017.1 |
| 20260905173458 | 17 | 234 | 8.0 | 17.7 | 0.00 | 0.00 | 0.05 | 58 | 1017.1 |
| 20260905172958 | 17 | 289 | 12.9 | 24.1 | 0.00 | 0.00 | 0.05 | 57 | 1017.1 |
| 20260905172458 | 17 | 270 | 8.0 | 11.3 | 0.00 | 0.00 | 0.05 | 58 | 1017.0 |
| 20260905171958 | 17 | 273 | 6.4 | 17.7 | 0.00 | 0.00 | 0.05 | 57 | 1017.1 |
| 20260905171458 | 17 | 268 | 12.9 | 27.4 | 0.00 | 0.00 | 0.05 | 56 | 1017.2 |
| 20260905170958 | 17 | 282 | 17.7 | 20.9 | 0.00 | 0.00 | 0.05 | 56 | 1016.8 |
| 20260905170458 | 17 | 268 | 11.3 | 11.3 | 0.00 | 0.00 | 0.05 | 56 | 1016.8 |
| 20260905165958 | 17 | 256 | 14.5 | 24.1 | 0.00 | 0.00 | 0.05 | 55 | 1016.8 |
| 20260905165458 | 18 | 254 | 16.1 | 20.9 | 0.00 | 0.00 | 0.05 | 55 | 1016.8 |
| 20260905164958 | 17 | 257 | 16.1 | 27.4 | 0.00 | 0.00 | 0.05 | 56 | 1016.8 |
| 20260905164458 | 17 | 282 | 12.9 | 14.5 | 0.00 | 0.00 | 0.05 | 56 | 1016.6 |
| 20260905163958 | 18 | 270 | 14.5 | 27.4 | 0.00 | 0.00 | 0.05 | 55 | 1016.7 |
| 20260905163458 | 18 | 273 | 6.4 | 14.5 | 0.00 | 0.00 | 0.05 | 55 | 1016.4 |
| 20260905162958 | 18 | 266 | 11.3 | 20.9 | 0.00 | 0.00 | 0.05 | 54 | 1016.3 |
| 20260905162458 | 18 | 264 | 14.5 | 29.0 | 0.00 | 0.00 | 0.05 | 54 | 1016.4 |
| 20260905161958 | 18 | 266 | 12.9 | 20.9 | 0.00 | 0.00 | 0.05 | 54 | 1016.2 |
| 20260905161458 | 18 | 250 | 19.3 | 29.0 | 0.00 | 0.00 | 0.05 | 54 | 1016.4 |
| 20260905160958 | 18 | 272 | 12.9 | 14.5 | 0.00 | 0.00 | 0.05 | 54 | 1016.2 |
| 20260905160458 | 18 | 284 | 9.7 | 24.1 | 0.00 | 0.00 | 0.05 | 53 | 1016.1 |
| 20260905155958 | 18 | 282 | 9.7 | 24.1 | 0.00 | 0.00 | 0.05 | 53 | 1016.2 |
| 20260905155458 | 18 | 323 | 19.3 | 38.6 | 0.00 | 0.00 | 0.05 | 53 | 1016.2 |
| 20260905154957 | 18 | 259 | 8.0 | 17.7 | 0.00 | 0.00 | 0.05 | 54 | 1016.1 |
| 20260905154458 | 20 | 264 | 16.1 | 24.1 | 0.00 | 0.00 | 0.05 | 53 | 1016.1 |
| 20260905153958 | 20 | 280 | 11.3 | 24.1 | 0.00 | 0.00 | 0.05 | 52 | 1016.0 |
| 20260905153458 | 20 | 277 | 17.7 | 32.2 | 0.00 | 0.00 | 0.05 | 51 | 1016.0 |
| 20260905152958 | 21 | 300 | 17.7 | 29.0 | 0.00 | 0.00 | 0.05 | 51 | 1015.7 |
| 20260905152458 | 21 | 293 | 20.9 | 29.0 | 0.00 | 0.00 | 0.05 | 49 | 1015.7 |
| 20260905151958 | 20 | 265 | 22.5 | 29.0 | 0.00 | 0.00 | 0.05 | 51 | 1015.7 |
| 20260905151458 | 20 | 240 | 19.3 | 32.2 | 0.00 | 0.00 | 0.05 | 51 | 1015.8 |
| 20260905150958 | 20 | 300 | 11.3 | 27.4 | 0.00 | 0.00 | 0.05 | 51 | 1015.7 |
| 20260905150458 | 21 | 285 | 22.5 | 41.8 | 0.00 | 0.00 | 0.05 | 50 | 1015.5 |
| 20260905145958 | 21 | 258 | 14.5 | 35.4 | 0.00 | 0.00 | 0.05 | 50 | 1015.8 |
| 20260905145458 | 21 | 277 | 30.6 | 41.8 | 0.00 | 0.00 | 0.05 | 48 | 1015.7 |
| 20260905144958 | 21 | 270 | 9.7 | 24.1 | 0.00 | 0.00 | 0.05 | 50 | 1015.6 |
| 20260905144458 | 21 | 291 | 20.9 | 38.6 | 0.00 | 0.00 | 0.05 | 50 | 1015.7 |
| 20260905143958 | 21 | 263 | 24.1 | 38.6 | 0.00 | 0.00 | 0.05 | 50 | 1015.5 |
| 20260905143458 | 21 | 293 | 29.0 | 48.3 | 0.00 | 0.00 | 0.05 | 50 | 1015.4 |
| 20260905142958 | 21 | 286 | 16.1 | 27.4 | 0.00 | 0.00 | 0.05 | 51 | 1015.5 |
| 20260905142458 | 21 | 291 | 27.4 | 32.2 | 0.00 | 0.00 | 0.05 | 51 | 1015.5 |
| 20260905141958 | 21 | 238 | 25.7 | 35.4 | 0.00 | 0.00 | 0.05 | 51 | 1015.4 |
| 20260905141458 | 21 | 273 | 24.1 | 38.6 | 0.00 | 0.00 | 0.05 | 52 | 1015.7 |
| 20260905140958 | 21 | 273 | 24.1 | 41.8 | 0.00 | 0.00 | 0.05 | 51 | 1015.8 |
| 20260905140458 | 21 | 264 | 16.1 | 29.0 | 0.00 | 0.00 | 0.05 | 51 | 1015.7 |
| 20260905135958 | 20 | 301 | 24.1 | 38.6 | 0.00 | 0.00 | 0.05 | 52 | 1015.8 |
| 20260905135458 | 20 | 260 | 24.1 | 32.2 | 0.00 | 0.00 | 0.05 | 52 | 1015.8 |
| 20260905134958 | 21 | 274 | 19.3 | 38.6 | 0.00 | 0.00 | 0.05 | 50 | 1015.9 |
| 20260905134458 | 20 | 260 | 16.1 | 32.2 | 0.00 | 0.00 | 0.05 | 52 | 1015.7 |
| 20260905133958 | 20 | 271 | 20.9 | 32.2 | 0.00 | 0.00 | 0.05 | 52 | 1015.8 |
| 20260905133458 | 20 | 275 | 8.0 | 32.2 | 0.00 | 0.00 | 0.05 | 51 | 1015.7 |
| 20260905132958 | 20 | 281 | 30.6 | 41.8 | 0.00 | 0.00 | 0.05 | 51 | 1015.8 |
| 20260905132458 | 20 | 277 | 19.3 | 32.2 | 0.00 | 0.00 | 0.05 | 51 | 1015.6 |
| 20260905131958 | 20 | 299 | 17.7 | 38.6 | 0.00 | 0.00 | 0.05 | 51 | 1015.7 |
| 20260905131458 | 20 | 274 | 27.4 | 41.8 | 0.00 | 0.00 | 0.05 | 49 | 1015.8 |
| 20260905130958 | 20 | 259 | 16.1 | 32.2 | 0.00 | 0.00 | 0.05 | 49 | 1015.8 |
| 20260905130458 | 20 | 286 | 19.3 | 32.2 | 0.00 | 0.00 | 0.05 | 51 | 1015.7 |
| 20260905125958 | 20 | 293 | 24.1 | 41.8 | 0.00 | 0.00 | 0.05 | 49 | 1015.8 |
| 20260905125458 | 20 | 288 | 24.1 | 41.8 | 0.00 | 0.00 | 0.05 | 49 | 1015.7 |
| 20260905124958 | 20 | 265 | 35.4 | 53.1 | 0.00 | 0.00 | 0.05 | 47 | 1015.9 |
| 20260905124458 | 21 | 270 | 38.6 | 49.9 | 0.00 | 0.00 | 0.05 | 46 | 1015.6 |
| 20260905123958 | 21 | 280 | 20.9 | 35.4 | 0.00 | 0.00 | 0.05 | 48 | 1015.4 |
| 20260905123458 | 21 | 241 | 20.9 | 53.1 | 0.00 | 0.00 | 0.05 | 46 | 1015.5 |
| 20260905122958 | 21 | 346 | 19.3 | 59.5 | 0.00 | 0.00 | 0.05 | 46 | 1015.7 |
| 20260905122458 | 21 | 271 | 24.1 | 35.4 | 0.00 | 0.00 | 0.05 | 46 | 1015.6 |
| 20260905121958 | 21 | 298 | 27.4 | 45.1 | 0.00 | 0.00 | 0.05 | 47 | 1015.7 |
| 20260905121458 | 21 | 269 | 14.5 | 53.1 | 0.00 | 0.00 | 0.05 | 47 | 1015.6 |
| 20260905120958 | 20 | 286 | 20.9 | 45.1 | 0.00 | 0.00 | 0.05 | 47 | 1015.7 |
| 20260905120458 | 20 | 283 | 33.8 | 49.9 | 0.00 | 0.00 | 0.05 | 47 | 1015.4 |
| 20260905115958 | 20 | 280 | 40.2 | 49.9 | 0.00 | 0.00 | 0.05 | 46 | 1015.7 |
| 20260905115458 | 21 | 298 | 30.6 | 53.1 | 0.00 | 0.00 | 0.05 | 48 | 1015.5 |
| 20260905114958 | 21 | 274 | 30.6 | 49.9 | 0.00 | 0.00 | 0.05 | 48 | 1015.6 |
| 20260905114458 | 21 | 266 | 17.7 | 29.0 | 0.00 | 0.00 | 0.05 | 51 | 1015.3 |
| 20260905113958 | 20 | 296 | 14.5 | 35.4 | 0.00 | 0.00 | 0.05 | 52 | 1015.5 |
| 20260905113458 | 18 | 280 | 16.1 | 32.2 | 0.00 | 0.00 | 0.05 | 54 | 1015.6 |
| 20260905112958 | 18 | 290 | 12.9 | 49.9 | 0.00 | 0.00 | 0.05 | 55 | 1015.6 |
| 20260905112458 | 18 | 257 | 24.1 | 35.4 | 0.00 | 0.00 | 0.05 | 53 | 1015.4 |
| 20260905111958 | 20 | 293 | 20.9 | 32.2 | 0.00 | 0.00 | 0.05 | 53 | 1015.6 |
| 20260905111458 | 20 | 266 | 30.6 | 38.6 | 0.00 | 0.00 | 0.05 | 51 | 1015.5 |
| 20260905110958 | 18 | 286 | 9.7 | 29.0 | 0.00 | 0.00 | 0.05 | 56 | 1015.5 |
| 20260905110458 | 18 | 299 | 16.1 | 35.4 | 0.00 | 0.00 | 0.05 | 58 | 1015.5 |
| 20260905105958 | 18 | 321 | 32.2 | 38.6 | 0.00 | 0.00 | 0.05 | 56 | 1015.4 |
| 20260905105458 | 20 | 296 | 9.7 | 32.2 | 0.00 | 0.00 | 0.05 | 58 | 1015.5 |
| 20260905104958 | 20 | 305 | 22.5 | 38.6 | 0.00 | 0.00 | 0.05 | 59 | 1015.5 |
| 20260905104458 | 18 | 44 | 24.1 | 35.4 | 0.00 | 0.00 | 0.05 | 60 | 1015.3 |
| 20260905103958 | 18 | 318 | 22.5 | 45.1 | 0.00 | 0.00 | 0.05 | 60 | 1015.3 |
| 20260905103458 | 18 | 270 | 19.3 | 41.8 | 0.00 | 0.00 | 0.05 | 61 | 1015.6 |
| 20260905102958 | 17 | 280 | 14.5 | 41.8 | 0.00 | 0.00 | 0.05 | 63 | 1015.5 |
| 20260905102458 | 18 | 266 | 22.5 | 38.6 | 0.00 | 0.00 | 0.05 | 63 | 1015.3 |
| 20260905101958 | 17 | 291 | 14.5 | 29.0 | 0.00 | 0.00 | 0.05 | 64 | 1015.6 |
| 20260905101458 | 17 | 280 | 22.5 | 32.2 | 0.00 | 0.00 | 0.05 | 66 | 1015.6 |
| 20260905100958 | 17 | 279 | 19.3 | 45.1 | 0.00 | 0.00 | 0.05 | 65 | 1015.7 |
| 20260905100458 | 17 | 286 | 33.8 | 45.1 | 0.00 | 0.00 | 0.05 | 64 | 1015.4 |
| 20260905095957 | 18 | 288 | 30.6 | 48.3 | 0.00 | 0.00 | 0.05 | 62 | 1015.2 |
| 20260905095458 | 17 | 201 | 8.0 | 29.0 | 0.00 | 0.00 | 0.05 | 67 | 1015.3 |
| 20260905094958 | 17 | 254 | 25.7 | 35.4 | 0.00 | 0.00 | 0.05 | 67 | 1015.3 |
| 20260905094458 | 17 | 268 | 12.9 | 20.9 | 0.00 | 0.00 | 0.05 | 67 | 1015.0 |
| 20260905093958 | 17 | 242 | 12.9 | 32.2 | 0.00 | 0.00 | 0.05 | 68 | 1015.3 |
| 20260905093458 | 17 | 280 | 8.0 | 17.7 | 0.00 | 0.00 | 0.05 | 71 | 1015.6 |
| 20260905092958 | 17 | 305 | 22.5 | 32.2 | 0.00 | 0.00 | 0.05 | 69 | 1015.3 |
| 20260905092458 | 17 | 271 | 22.5 | 35.4 | 0.00 | 0.00 | 0.05 | 69 | 1015.6 |
| 20260905091958 | 17 | 211 | 30.6 | 48.3 | 0.00 | 0.00 | 0.05 | 68 | 1015.5 |
| 20260905091458 | 17 | 297 | 30.6 | 49.9 | 0.00 | 0.00 | 0.05 | 68 | 1015.3 |
| 20260905090958 | 17 | 258 | 24.1 | 35.4 | 0.00 | 0.00 | 0.05 | 70 | 1015.3 |
| 20260905090457 | 17 | 277 | 16.1 | 24.1 | 0.00 | 0.00 | 0.05 | 71 | 1015.4 |
| 20260905085958 | 17 | 282 | 24.1 | 38.6 | 0.00 | 0.00 | 0.05 | 70 | 1015.3 |
| 20260905085458 | 17 | 286 | 12.9 | 20.9 | 0.00 | 0.00 | 0.05 | 71 | 1015.3 |
| 20260905084957 | 17 | 275 | 17.7 | 29.0 | 0.00 | 0.00 | 0.05 | 71 | 1015.2 |
| 20260905084457 | 17 | 257 | 17.7 | 45.1 | 0.00 | 0.00 | 0.05 | 72 | 1015.2 |
| 20260905083958 | 17 | 286 | 16.1 | 27.4 | 0.00 | 0.00 | 0.05 | 73 | 1015.3 |
| 20260905083458 | 17 | 261 | 17.7 | 29.0 | 0.00 | 0.00 | 0.05 | 73 | 1015.4 |
| 20260905082958 | 17 | 243 | 32.2 | 45.1 | 0.00 | 0.00 | 0.05 | 72 | 1015.5 |
| 20260905082457 | 17 | 252 | 22.5 | 45.1 | 0.00 | 0.00 | 0.05 | 73 | 1015.6 |
| 20260905081957 | 17 | 212 | 11.3 | 29.0 | 0.00 | 0.00 | 0.05 | 75 | 1015.6 |
| 20260905081457 | 17 | 269 | 17.7 | 29.0 | 0.00 | 0.00 | 0.05 | 76 | 1015.7 |
| 20260905080958 | 16 | 277 | 32.2 | 38.6 | 0.00 | 0.00 | 0.05 | 75 | 1015.6 |
| 20260905080458 | 16 | 205 | 8.0 | 27.4 | 0.00 | 0.00 | 0.05 | 77 | 1015.6 |
| 20260905075958 | 16 | 295 | 14.5 | 17.7 | 0.00 | 0.00 | 0.05 | 79 | 1015.5 |
| 20260905075458 | 15 | 267 | 12.9 | 17.7 | 0.00 | 0.00 | 0.05 | 80 | 1015.5 |
| 20260905074957 | 15 | 258 | 24.1 | 29.0 | 0.00 | 0.00 | 0.05 | 80 | 1015.6 |
| 20260905074457 | 15 | 259 | 16.1 | 27.4 | 0.00 | 0.00 | 0.05 | 80 | 1015.5 |
| 20260905073958 | 15 | 254 | 6.4 | 17.7 | 0.00 | 0.00 | 0.05 | 82 | 1015.3 |
| 20260905073458 | 15 | 265 | 6.4 | 14.5 | 0.00 | 0.00 | 0.05 | 82 | 1015.4 |
| 20260905072958 | 15 | 255 | 14.5 | 17.7 | 0.00 | 0.00 | 0.05 | 83 | 1015.5 |
| 20260905072458 | 15 | 243 | 6.4 | 11.3 | 0.00 | 0.00 | 0.05 | 83 | 1015.4 |
| 20260905071957 | 15 | 276 | 20.9 | 29.0 | 0.00 | 0.00 | 0.05 | 83 | 1015.5 |
| 20260905071457 | 15 | 273 | 9.7 | 17.7 | 0.00 | 0.00 | 0.05 | 83 | 1015.3 |
| 20260905070958 | 15 | 261 | 17.7 | 27.4 | 0.00 | 0.00 | 0.05 | 83 | 1015.1 |
| 20260905070458 | 15 | 243 | 17.7 | 20.9 | 0.00 | 0.00 | 0.05 | 83 | 1014.9 |
| 20260905065958 | 15 | 262 | 19.3 | 20.9 | 0.00 | 0.00 | 0.05 | 83 | 1015.1 |
| 20260905065457 | 15 | 252 | 9.7 | 29.0 | 0.00 | 0.00 | 0.05 | 83 | 1015.1 |
| 20260905064958 | 15 | 256 | 14.5 | 29.0 | 0.00 | 0.00 | 0.05 | 83 | 1015.1 |
| 20260905064457 | 15 | 279 | 11.3 | 17.7 | 0.00 | 0.00 | 0.05 | 84 | 1014.8 |
| 20260905063957 | 15 | 246 | 3.2 | 24.1 | 0.00 | 0.00 | 0.05 | 84 | 1014.8 |
| 20260905063458 | 15 | 267 | 16.1 | 24.1 | 0.00 | 0.00 | 0.05 | 85 | 1014.6 |
| 20260905062958 | 15 | 270 | 6.4 | 17.7 | 0.00 | 0.00 | 0.05 | 85 | 1014.5 |
| 20260905062457 | 15 | 270 | 12.9 | 27.4 | 0.00 | 0.00 | 0.05 | 85 | 1014.5 |
| 20260905061957 | 15 | 272 | 8.0 | 17.7 | 0.00 | 0.00 | 0.05 | 85 | 1014.5 |
| 20260905061457 | 15 | 262 | 8.0 | 29.0 | 0.00 | 0.00 | 0.05 | 85 | 1014.8 |
| 20260905060958 | 13 | 270 | 19.3 | 29.0 | 0.00 | 0.00 | 0.05 | 85 | 1014.8 |
| 20260905060458 | 15 | 250 | 12.9 | 24.1 | 0.00 | 0.00 | 0.05 | 85 | 1014.2 |
| 20260905055958 | 15 | 255 | 19.3 | 27.4 | 0.00 | 0.00 | 0.05 | 86 | 1014.4 |
| 20260905055457 | 15 | 253 | 24.1 | 32.2 | 0.00 | 0.00 | 0.05 | 86 | 1014.3 |
| 20260905054957 | 13 | 276 | 29.0 | 32.2 | 0.00 | 0.00 | 0.05 | 87 | 1014.2 |
| 20260905054458 | 13 | 236 | 12.9 | 29.0 | 0.00 | 0.00 | 0.05 | 87 | 1014.3 |
| 20260905053958 | 13 | 262 | 12.9 | 32.2 | 0.00 | 0.00 | 0.05 | 88 | 1014.1 |
| 20260905053458 | 13 | 211 | 24.1 | 38.6 | 0.00 | 0.00 | 0.05 | 89 | 1014.0 |
| 20260905052957 | 13 | 255 | 19.3 | 27.4 | 0.00 | 0.00 | 0.05 | 89 | 1014.3 |
| 20260905052458 | 13 | 271 | 12.9 | 24.1 | 0.00 | 0.00 | 0.05 | 89 | 1014.0 |
| 20260905051957 | 13 | 270 | 19.3 | 27.4 | 0.00 | 0.00 | 0.05 | 89 | 1014.1 |
| 20260905051458 | 15 | 261 | 16.1 | 20.9 | 0.00 | 0.00 | 0.05 | 89 | 1014.0 |
| 20260905050957 | 15 | 248 | 11.3 | 27.4 | 0.00 | 0.00 | 0.05 | 89 | 1013.9 |
| 20260905050458 | 15 | 269 | 6.4 | 14.5 | 0.18 | 0.00 | 0.05 | 89 | 1013.5 |
| 20260905045958 | 15 | 248 | 6.4 | 17.7 | 0.18 | 0.00 | 0.05 | 89 | 1013.3 |
| 20260905045457 | 15 | 248 | 4.8 | 17.7 | 0.00 | 0.00 | 0.03 | 88 | 1013.6 |
| 20260905044958 | 15 | 309 | 14.5 | 20.9 | 0.00 | 0.00 | 0.03 | 88 | 1013.6 |
| 20260905044457 | 15 | 231 | 8.0 | 20.9 | 0.00 | 0.00 | 0.03 | 88 | 1013.4 |
| 20260905043957 | 15 | 265 | 9.7 | 20.9 | 0.00 | 0.00 | 0.03 | 89 | 1013.4 |
| 20260905043458 | 15 | 261 | 12.9 | 20.9 | 0.00 | 0.00 | 0.03 | 89 | 1013.3 |
| 20260905042958 | 15 | 233 | 14.5 | 32.2 | 0.00 | 0.00 | 0.03 | 89 | 1013.2 |
| 20260905042457 | 15 | 282 | 12.9 | 24.1 | 0.00 | 0.00 | 0.03 | 89 | 1013.3 |
| 20260905041958 | 15 | 277 | 6.4 | 20.9 | 0.00 | 0.00 | 0.03 | 89 | 1013.3 |
| 20260905041458 | 15 | 264 | 16.1 | 24.1 | 0.00 | 0.00 | 0.03 | 89 | 1013.2 |
| 20260905040957 | 15 | 284 | 14.5 | 27.4 | 0.00 | 0.00 | 0.03 | 88 | 1013.2 |
| 20260905040458 | 15 | 252 | 11.3 | 20.9 | 0.00 | 0.00 | 0.03 | 88 | 1013.1 |
| 20260905035958 | 15 | 229 | 12.9 | 24.1 | 0.00 | 0.00 | 0.03 | 88 | 1013.0 |
| 20260905035458 | 15 | 238 | 14.5 | 24.1 | 0.00 | 0.00 | 0.03 | 88 | 1012.8 |
| 20260905034957 | 15 | 213 | 8.0 | 20.9 | 0.00 | 0.00 | 0.03 | 88 | 1012.7 |
| 20260905034457 | 15 | 234 | 19.3 | 24.1 | 0.00 | 0.00 | 0.03 | 89 | 1012.6 |
| 20260905033958 | 15 | 257 | 14.5 | 24.1 | 0.00 | 0.00 | 0.03 | 89 | 1012.6 |
| 20260905033458 | 15 | 248 | 8.0 | 20.9 | 0.00 | 0.00 | 0.03 | 89 | 1012.2 |
| 20260905032957 | 15 | 262 | 8.0 | 17.7 | 0.00 | 0.00 | 0.03 | 89 | 1012.2 |
| 20260905032458 | 15 | 274 | 6.4 | 24.1 | 0.00 | 0.00 | 0.03 | 89 | 1012.5 |
| 20260905031957 | 15 | 201 | 9.7 | 17.7 | 0.00 | 0.00 | 0.03 | 89 | 1012.0 |
| 20260905031457 | 15 | 280 | 9.7 | 17.7 | 0.00 | 0.00 | 0.03 | 89 | 1012.0 |
| 20260905030957 | 15 | 272 | 11.3 | 11.3 | 0.00 | 0.00 | 0.03 | 90 | 1011.9 |
| 20260905030457 | 15 | 254 | 9.7 | 14.5 | 0.00 | 0.00 | 0.03 | 90 | 1012.1 |
| 20260905025957 | 15 | 286 | 8.0 | 17.7 | 0.00 | 0.00 | 0.03 | 90 | 1012.0 |
| 20260905025458 | 15 | 257 | 6.4 | 27.4 | 0.00 | 0.00 | 0.03 | 90 | 1012.1 |
| 20260905024957 | 15 | 199 | 14.5 | 24.1 | 0.00 | 0.00 | 0.03 | 90 | 1012.0 |
| 20260905024457 | 15 | 249 | 14.5 | 27.4 | 0.00 | 0.00 | 0.03 | 90 | 1012.3 |
| 20260905023957 | 15 | 285 | 14.5 | 20.9 | 0.00 | 0.00 | 0.03 | 90 | 1012.1 |
| 20260905023457 | 15 | 256 | 6.4 | 8.0 | 0.00 | 0.00 | 0.03 | 90 | 1011.9 |
| 20260905022957 | 15 | 285 | 8.0 | 17.7 | 0.00 | 0.00 | 0.03 | 90 | 1012.2 |
| 20260905022457 | 15 | 292 | 16.1 | 20.9 | 0.00 | 0.00 | 0.03 | 90 | 1012.5 |
| 20260905021957 | 15 | 282 | 24.1 | 32.2 | 0.00 | 0.00 | 0.03 | 90 | 1012.3 |
| 20260905021457 | 15 | 251 | 9.7 | 27.4 | 0.00 | 0.00 | 0.03 | 90 | 1012.2 |
| 20260905020957 | 15 | 263 | 8.0 | 20.9 | 0.00 | 0.00 | 0.03 | 90 | 1012.3 |
| 20260905020457 | 15 | 188 | 16.1 | 20.9 | 0.00 | 0.00 | 0.03 | 90 | 1012.1 |
| 20260905015957 | 15 | 273 | 17.7 | 20.9 | 0.00 | 0.00 | 0.03 | 89 | 1012.3 |
| 20260905015457 | 15 | 259 | 14.5 | 20.9 | 0.00 | 0.00 | 0.03 | 89 | 1011.7 |
| 20260905014957 | 15 | 268 | 11.3 | 27.4 | 0.00 | 0.00 | 0.03 | 88 | 1011.8 |
| 20260905014457 | 15 | 250 | 11.3 | 29.0 | 0.00 | 0.00 | 0.03 | 89 | 1011.4 |
| 20260905013957 | 15 | 248 | 12.9 | 27.4 | 0.00 | 0.00 | 0.03 | 89 | 1011.4 |
| 20260905013457 | 15 | 232 | 16.1 | 35.4 | 0.00 | 0.00 | 0.03 | 90 | 1011.7 |
| 20260905012957 | 15 | 286 | 14.5 | 17.7 | 0.00 | 0.00 | 0.03 | 90 | 1011.9 |
| 20260905012457 | 15 | 234 | 8.0 | 20.9 | 0.00 | 0.00 | 0.03 | 89 | 1011.8 |
| 20260905011957 | 15 | 289 | 16.1 | 24.1 | 0.00 | 0.00 | 0.03 | 88 | 1011.8 |
| 20260905011457 | 16 | 239 | 12.9 | 29.0 | 0.13 | 0.00 | 0.03 | 86 | 1011.9 |
| 20260905010957 | 16 | 257 | 19.3 | 35.4 | 0.13 | 0.00 | 0.03 | 83 | 1012.0 |
| 20260905010457 | 16 | 291 | 14.5 | 27.4 | 0.00 | 0.00 | 0.00 | 81 | 1012.0 |
| 20260905005957 | 17 | 307 | 14.5 | 27.4 | 0.00 | 0.00 | 0.00 | 79 | 1011.6 |
| 20260905005457 | 17 | 281 | 22.5 | 38.6 | 0.00 | 0.00 | 0.00 | 76 | 1011.9 |
| 20260905004957 | 17 | 241 | 25.7 | 38.6 | 0.00 | 0.00 | 0.00 | 74 | 1012.0 |
| 20260905004457 | 17 | 272 | 20.9 | 35.4 | 0.00 | 0.00 | 0.00 | 73 | 1011.6 |
| 20260905003957 | 17 | 266 | 16.1 | 48.3 | 0.00 | 0.00 | 0.00 | 72 | 1011.1 |
| 20260905003457 | 17 | 296 | 12.9 | 27.4 | 0.00 | 0.00 | 0.00 | 72 | 1011.2 |
| 20260905002957 | 17 | 291 | 17.7 | 27.4 | 0.00 | 0.00 | 0.00 | 71 | 1011.5 |
| 20260905002457 | 17 | 301 | 24.1 | 32.2 | 0.00 | 0.00 | 0.00 | 70 | 1011.3 |
| 20260905001957 | 17 | 270 | 27.4 | 41.8 | 0.00 | 0.00 | 0.00 | 70 | 1011.6 |
| 20260905001457 | 17 | 286 | 25.7 | 56.3 | 0.00 | 0.00 | 0.00 | 69 | 1011.4 |
| 20260905000957 | 17 | 286 | 27.4 | 45.1 | 0.00 | 0.00 | 0.00 | 67 | 1011.1 |
| 20260905000457 | 17 | 289 | 24.1 | 45.1 | 0.00 | 0.00 | 0.00 | 67 | 1011.1 |
| 20260904235957 | 17 | 290 | 17.7 | 24.1 | 0.00 | 0.00 | 0.00 | 67 | 1011.1 |
| 20260904235457 | 17 | 280 | 27.4 | 41.8 | 0.00 | 0.00 | 0.00 | 66 | 1011.3 |
| 20260904234957 | 17 | 307 | 19.3 | 38.6 | 0.00 | 0.00 | 0.00 | 65 | 1010.9 |
| 20260904234457 | 18 | 303 | 19.3 | 35.4 | 0.00 | 0.00 | 0.00 | 66 | 1010.9 |
| 20260904233957 | 18 | 268 | 29.0 | 48.3 | 0.00 | 0.00 | 0.00 | 67 | 1010.7 |
| 20260904233457 | 18 | 264 | 12.9 | 27.4 | 0.00 | 0.00 | 0.00 | 66 | 1010.5 |
| 20260904232957 | 18 | 277 | 17.7 | 27.4 | 0.00 | 0.00 | 0.00 | 66 | 1010.5 |
| 20260904232457 | 18 | 244 | 19.3 | 41.8 | 0.00 | 0.00 | 0.00 | 66 | 1010.4 |
| 20260904231957 | 18 | 296 | 16.1 | 24.1 | 0.00 | 0.00 | 0.00 | 66 | 1010.3 |
| 20260904231457 | 18 | 283 | 16.1 | 32.2 | 0.00 | 0.00 | 0.00 | 66 | 1010.4 |
| 20260904230957 | 18 | 271 | 14.5 | 29.0 | 0.00 | 0.00 | 0.00 | 66 | 1010.5 |
| 20260904230457 | 18 | 273 | 14.5 | 38.6 | 0.00 | 0.00 | 0.00 | 66 | 1010.4 |
| 20260904225957 | 18 | 286 | 33.8 | 56.3 | 0.00 | 0.00 | 0.00 | 65 | 1010.2 |
| 20260904225457 | 18 | 275 | 20.9 | 32.2 | 0.00 | 0.00 | 0.00 | 65 | 1010.2 |
| 20260904224957 | 20 | 276 | 24.1 | 45.1 | 0.00 | 0.00 | 0.00 | 66 | 1010.1 |
| 20260904224457 | 20 | 279 | 20.9 | 35.4 | 0.00 | 0.00 | 0.00 | 65 | 1010.1 |
| 20260904223957 | 20 | 280 | 20.9 | 45.1 | 0.00 | 0.00 | 0.00 | 66 | 1009.7 |
| 20260904223457 | 20 | 291 | 41.8 | 53.1 | 0.00 | 0.00 | 0.00 | 67 | 1009.5 |
| 20260904222957 | 21 | 277 | 19.3 | 24.1 | 0.00 | 0.00 | 0.00 | 68 | 1009.5 |
| 20260904221957 | 21 | 299 | 16.1 | 38.6 | 0.00 | 0.00 | 0.00 | 66 | 1009.4 |
| 20260904221457 | 22 | 330 | 20.9 | 32.2 | 0.00 | 0.00 | 0.00 | 67 | 1009.2 |
| 20260904220957 | 22 | 334 | 27.4 | 38.6 | 0.00 | 0.00 | 0.00 | 66 | 1009.1 |
| 20260904220457 | 22 | 328 | 22.5 | 35.4 | 0.00 | 0.00 | 0.00 | 66 | 1008.9 |
| 20260904215957 | 22 | 334 | 16.1 | 27.4 | 0.00 | 0.00 | 0.00 | 65 | 1008.8 |
| 20260904215457 | 22 | 283 | 33.8 | 38.6 | 0.00 | 0.00 | 0.00 | 63 | 1008.8 |
| 20260904214957 | 22 | 301 | 29.0 | 38.6 | 0.00 | 0.00 | 0.00 | 60 | 1008.8 |
| 20260904214457 | 22 | 268 | 32.2 | 62.8 | 0.00 | 0.00 | 0.00 | 59 | 1008.6 |
| 20260904213957 | 22 | 274 | 20.9 | 32.2 | 0.00 | 0.00 | 0.00 | 61 | 1008.3 |
| 20260904213457 | 22 | 222 | 12.9 | 24.1 | 0.00 | 0.00 | 0.00 | 61 | 1007.5 |
| 20260904212957 | 22 | 240 | 19.3 | 27.4 | 0.00 | 0.00 | 0.00 | 61 | 1007.5 |
| 20260904212457 | 22 | 264 | 12.9 | 17.7 | 0.00 | 0.00 | 0.00 | 62 | 1007.3 |
| 20260904211957 | 22 | 226 | 8.0 | 11.3 | 0.00 | 0.00 | 0.00 | 63 | 1007.3 |
| 20260904211457 | 22 | 225 | 19.3 | 27.4 | 0.00 | 0.00 | 0.00 | 63 | 1007.5 |
| 20260904210957 | 22 | 202 | 11.3 | 24.1 | 0.00 | 0.00 | 0.00 | 63 | 1007.4 |
| 20260904210457 | 22 | 231 | 1.6 | 14.5 | 0.00 | 0.00 | 0.00 | 64 | 1007.9 |
| 20260904205957 | 22 | 204 | 8.0 | 11.3 | 0.00 | 0.00 | 0.00 | 65 | 1007.9 |
| 20260904205457 | 21 | 204 | 6.4 | 14.5 | 0.00 | 0.00 | 0.00 | 66 | 1007.8 |
| 20260904204957 | 21 | 216 | 6.4 | 8.0 | 0.00 | 0.00 | 0.00 | 67 | 1007.6 |
| 20260904204458 | 21 | 220 | 9.7 | 17.7 | 0.00 | 0.00 | 0.00 | 67 | 1007.6 |
| 20260904203957 | 21 | 242 | 4.8 | 20.9 | 0.00 | 0.00 | 0.00 | 67 | 1007.7 |
| 20260904203457 | 21 | 277 | 12.9 | 17.7 | 0.00 | 0.00 | 0.00 | 68 | 1007.8 |
| 20260904202957 | 21 | 272 | 12.9 | 17.7 | 0.00 | 0.00 | 0.00 | 68 | 1007.7 |
| 20260904202457 | 21 | 189 | 4.8 | 17.7 | 0.00 | 0.00 | 0.00 | 69 | 1008.1 |
| 20260904201957 | 21 | 207 | 6.4 | 17.7 | 0.00 | 0.00 | 0.00 | 69 | 1007.9 |
| 20260904201457 | 21 | 212 | 6.4 | 24.1 | 0.00 | 0.00 | 0.00 | 69 | 1008.1 |
| 20260904200957 | 21 | 215 | 8.0 | 14.5 | 0.00 | 0.00 | 0.00 | 70 | 1008.1 |
| 20260904200457 | 21 | 142 | 6.4 | 14.5 | 0.00 | 0.00 | 0.00 | 70 | 1008.2 |
| 20260904195957 | 21 | 223 | 9.7 | 20.9 | 0.00 | 0.00 | 0.00 | 70 | 1008.1 |